createdAt,value
2022-10-06T00:02:33.713Z,92.70
2022-10-06T00:05:10.450Z,92.70
2022-10-06T00:07:41.191Z,92.70
2022-10-06T00:10:12.271Z,92.70
2022-10-06T00:12:52.091Z,92.80
2022-10-06T00:18:10.170Z,92.80
2022-10-06T00:21:03.801Z,92.80
2022-10-06T00:23:43.608Z,92.80
2022-10-06T00:28:25.424Z,92.90
2022-10-06T00:33:00.649Z,92.80
2022-10-06T00:36:13.652Z,92.70
2022-10-06T00:44:07.805Z,92.60
2022-10-06T00:50:44.279Z,92.40
2022-10-06T00:53:54.098Z,92.30
2022-10-06T00:56:43.059Z,92.20
2022-10-06T00:59:32.139Z,92.20
2022-10-06T01:02:19.376Z,92.20
2022-10-06T01:05:05.774Z,92.10
2022-10-06T01:07:51.959Z,92.10
2022-10-06T01:10:36.516Z,92.20
2022-10-06T01:13:38.181Z,92.10
2022-10-06T01:16:30.556Z,92.00
2022-10-06T01:18:59.060Z,92.00
2022-10-06T01:22:26.153Z,91.90
2022-10-06T01:25:15.307Z,91.80
2022-10-06T01:28:09.280Z,91.80
2022-10-06T01:31:19.449Z,91.70
2022-10-06T01:38:09.125Z,91.70
2022-10-06T01:41:25.630Z,91.70
2022-10-06T01:44:44.177Z,91.80
2022-10-06T01:47:26.367Z,91.70
2022-10-06T01:49:59.171Z,91.80
2022-10-06T01:52:43.968Z,91.80
2022-10-06T01:55:22.584Z,91.80
2022-10-06T02:01:49.274Z,91.70
2022-10-06T02:04:42.236Z,91.60
2022-10-06T02:08:14.533Z,91.50
2022-10-06T02:11:11.695Z,91.40
2022-10-06T02:14:20.887Z,91.40
2022-10-06T02:16:51.772Z,91.50
2022-10-06T02:19:29.264Z,91.60
2022-10-06T02:22:07.969Z,91.60
2022-10-06T02:24:38.829Z,91.70
2022-10-06T02:27:20.315Z,91.70
2022-10-06T02:29:53.595Z,91.70
2022-10-06T02:32:32.268Z,91.80
2022-10-06T02:35:02.542Z,91.80
2022-10-06T02:37:34.732Z,91.90
2022-10-06T02:40:14.037Z,91.90
2022-10-06T02:42:48.282Z,91.80
2022-10-06T02:45:23.800Z,91.80
2022-10-06T02:48:35.061Z,91.80
2022-10-06T02:51:19.672Z,91.70
2022-10-06T02:53:50.391Z,91.80
2022-10-06T02:56:23.648Z,91.80
2022-10-06T02:58:57.483Z,91.80
2022-10-06T03:01:32.933Z,91.90
2022-10-06T03:04:17.769Z,91.90
2022-10-06T03:06:50.874Z,91.90
2022-10-06T03:09:29.092Z,92.00
2022-10-06T03:12:06.789Z,92.00
2022-10-06T03:14:38.547Z,91.90
2022-10-06T03:17:19.179Z,91.90
2022-10-06T03:19:58.945Z,91.90
2022-10-06T03:22:29.704Z,92.00
2022-10-06T03:25:00.215Z,92.00
2022-10-06T03:27:27.523Z,92.00
2022-10-06T03:30:00.535Z,92.00
2022-10-06T03:32:29.921Z,92.00
2022-10-06T03:34:57.717Z,92.00
2022-10-06T03:37:31.092Z,92.00
2022-10-06T03:40:03.588Z,92.00
2022-10-06T03:42:34.054Z,92.00
2022-10-06T03:45:01.628Z,92.10
2022-10-06T03:47:33.979Z,92.00
2022-10-06T03:50:03.249Z,92.00
2022-10-06T03:52:34.020Z,92.10
2022-10-06T03:55:05.006Z,92.10
2022-10-06T03:57:34.662Z,92.10
2022-10-06T04:00:05.472Z,92.00
2022-10-06T04:02:39.459Z,92.00
2022-10-06T04:05:09.945Z,92.00
2022-10-06T04:07:38.425Z,92.00
2022-10-06T04:10:11.524Z,92.00
2022-10-06T04:12:46.956Z,92.00
2022-10-06T04:15:14.610Z,92.10
2022-10-06T04:17:41.853Z,92.10
2022-10-06T04:20:09.018Z,92.20
2022-10-06T04:22:36.231Z,92.20
2022-10-06T04:25:03.433Z,92.40
2022-10-06T04:27:30.925Z,92.20
2022-10-06T04:30:10.766Z,92.30
2022-10-06T04:32:40.993Z,92.30
2022-10-06T04:35:10.535Z,92.40
2022-10-06T04:37:43.491Z,92.40
2022-10-06T04:40:11.280Z,92.40
2022-10-06T04:42:43.531Z,92.50
2022-10-06T04:45:16.029Z,92.70
2022-10-06T04:47:50.215Z,92.50
2022-10-06T04:50:20.432Z,92.50
2022-10-06T04:53:05.271Z,92.40
2022-10-06T04:55:34.935Z,92.40
2022-10-06T04:58:05.149Z,92.40
2022-10-06T05:00:32.561Z,92.40
2022-10-06T05:02:59.608Z,92.50
2022-10-06T05:05:27.885Z,92.40
2022-10-06T05:07:56.496Z,92.50
2022-10-06T05:10:23.832Z,92.50
2022-10-06T05:12:50.744Z,92.50
2022-10-06T05:15:18.931Z,92.50
2022-10-06T05:17:45.926Z,92.50
2022-10-06T05:20:13.652Z,92.50
2022-10-06T05:22:40.790Z,92.50
2022-10-06T05:25:08.198Z,92.50
2022-10-06T05:27:35.347Z,92.50
2022-10-06T05:30:02.415Z,92.60
2022-10-06T05:32:32.560Z,92.60
2022-10-06T05:35:03.484Z,92.60
2022-10-06T05:37:30.484Z,92.70
2022-10-06T05:39:57.723Z,92.70
2022-10-06T05:42:29.368Z,92.70
2022-10-06T05:44:57.375Z,92.70
2022-10-06T05:47:25.415Z,92.70
2022-10-06T05:49:52.438Z,92.80
2022-10-06T05:52:19.422Z,92.80
2022-10-06T05:54:46.530Z,92.80
2022-10-06T05:57:14.112Z,92.80
2022-10-06T05:59:41.075Z,92.80
2022-10-06T06:02:09.462Z,92.80
2022-10-06T06:04:41.240Z,92.80
2022-10-06T06:07:09.688Z,92.80
2022-10-06T06:09:38.511Z,92.80
2022-10-06T06:12:05.770Z,92.80
2022-10-06T06:14:57.031Z,92.70
2022-10-06T06:17:31.394Z,92.70
2022-10-06T06:19:58.843Z,92.60
2022-10-06T06:22:26.634Z,92.60
2022-10-06T06:24:53.704Z,92.60
2022-10-06T06:27:22.308Z,92.60
2022-10-06T06:29:49.251Z,92.60
2022-10-06T06:32:16.436Z,92.60
2022-10-06T06:34:43.823Z,92.50
2022-10-06T06:37:15.073Z,92.50
2022-10-06T06:39:44.579Z,92.50
2022-10-06T06:42:11.742Z,92.50
2022-10-06T06:44:39.559Z,92.50
2022-10-06T06:47:30.789Z,92.40
2022-10-06T06:50:00.335Z,92.40
2022-10-06T06:52:32.357Z,92.30
2022-10-06T06:54:59.947Z,92.30
2022-10-06T06:57:27.771Z,92.30
2022-10-06T07:00:02.680Z,92.30
2022-10-06T07:02:32.536Z,92.30
2022-10-06T07:05:00.660Z,92.20
2022-10-06T07:07:27.663Z,92.20
2022-10-06T07:09:54.656Z,92.10
2022-10-06T07:12:25.421Z,92.10
2022-10-06T07:15:16.216Z,92.00
2022-10-06T07:18:04.810Z,92.00
2022-10-06T07:20:51.345Z,92.00
2022-10-06T07:23:39.365Z,91.90
2022-10-06T07:26:11.178Z,91.80
2022-10-06T07:28:42.493Z,91.80
2022-10-06T07:31:10.746Z,91.70
2022-10-06T07:33:40.911Z,91.70
2022-10-06T07:36:09.137Z,91.60
2022-10-06T07:38:36.453Z,91.60
2022-10-06T07:41:20.376Z,91.60
2022-10-06T07:43:55.067Z,91.50
2022-10-06T07:46:23.282Z,91.50
2022-10-06T07:49:00.399Z,91.50
2022-10-06T07:51:27.542Z,91.40
2022-10-06T07:53:56.846Z,91.40
2022-10-06T07:56:49.673Z,91.30
2022-10-06T07:59:18.764Z,91.20
2022-10-06T08:01:45.998Z,91.10
2022-10-06T08:04:14.039Z,91.10
2022-10-06T08:06:42.185Z,91.00
2022-10-06T08:09:09.086Z,91.10
2022-10-06T08:11:36.197Z,91.00
2022-10-06T08:14:03.289Z,91.00
2022-10-06T08:16:30.539Z,90.90
2022-10-06T08:18:59.426Z,90.80
2022-10-06T08:21:29.312Z,90.70
2022-10-06T08:23:57.798Z,90.70
2022-10-06T08:26:26.559Z,90.50
2022-10-06T08:28:55.482Z,90.50
2022-10-06T08:31:23.811Z,90.50
2022-10-06T08:33:56.271Z,90.40
2022-10-06T08:36:31.041Z,90.40
2022-10-06T08:38:59.093Z,90.30
2022-10-06T08:41:46.662Z,90.20
2022-10-06T08:44:32.101Z,90.10
2022-10-06T08:47:05.433Z,90.10
2022-10-06T08:49:39.415Z,90.00
2022-10-06T08:52:48.064Z,89.70
2022-10-06T08:55:30.047Z,89.60
2022-10-06T08:58:29.061Z,89.30
2022-10-06T09:01:26.640Z,89.20
2022-10-06T09:03:58.413Z,88.70
2022-10-06T09:06:38.159Z,88.80
2022-10-06T09:09:25.252Z,88.50
2022-10-06T09:12:15.797Z,87.80
2022-10-06T09:15:15.495Z,87.40
2022-10-06T09:17:56.175Z,87.20
2022-10-06T09:20:37.195Z,87.40
2022-10-06T09:23:07.058Z,86.90
2022-10-06T09:25:34.005Z,86.60
2022-10-06T09:28:03.316Z,86.20
2022-10-06T09:30:30.355Z,85.60
2022-10-06T09:33:03.386Z,85.30
2022-10-06T09:35:32.261Z,84.90
2022-10-06T09:38:08.579Z,84.40
2022-10-06T09:40:51.240Z,84.20
2022-10-06T09:43:29.039Z,84.00
2022-10-06T09:46:17.728Z,83.10
2022-10-06T09:48:44.553Z,82.80
2022-10-06T09:51:17.333Z,82.50
2022-10-06T09:54:03.072Z,82.30
2022-10-06T09:56:33.768Z,81.90
2022-10-06T09:59:01.754Z,81.90
2022-10-06T10:01:31.696Z,81.70
2022-10-06T10:04:19.923Z,81.60
2022-10-06T10:06:48.602Z,80.80
2022-10-06T10:09:24.270Z,80.50
2022-10-06T10:12:24.786Z,79.70
2022-10-06T10:14:52.990Z,79.80
2022-10-06T10:17:24.179Z,79.60
2022-10-06T10:19:54.955Z,79.30
2022-10-06T10:22:37.177Z,79.00
2022-10-06T10:25:30.817Z,79.00
2022-10-06T10:28:37.023Z,78.20
2022-10-06T10:31:17.298Z,77.10
2022-10-06T10:34:12.663Z,76.90
2022-10-06T10:36:58.133Z,76.50
2022-10-06T10:39:37.612Z,76.80
2022-10-06T10:42:15.459Z,76.60
2022-10-06T10:44:53.631Z,75.70
2022-10-06T10:47:27.794Z,75.80
2022-10-06T10:50:20.219Z,76.30
2022-10-06T10:52:50.465Z,76.10
2022-10-06T10:55:27.071Z,76.00
2022-10-06T10:58:26.672Z,75.30
2022-10-06T11:00:58.265Z,75.30
2022-10-06T11:03:25.563Z,75.40
2022-10-06T11:06:15.006Z,74.60
2022-10-06T11:09:08.179Z,74.80
2022-10-06T11:12:09.031Z,73.80
2022-10-06T11:14:38.881Z,73.60
2022-10-06T11:17:40.110Z,73.60
2022-10-06T11:20:46.304Z,73.90
2022-10-06T11:23:38.146Z,74.10
2022-10-06T11:26:10.158Z,74.40
2022-10-06T11:28:40.258Z,74.20
2022-10-06T11:31:33.016Z,74.20
2022-10-06T11:34:01.754Z,73.90
2022-10-06T11:37:06.199Z,73.70
2022-10-06T11:40:14.658Z,73.10
2022-10-06T11:42:49.189Z,72.60
2022-10-06T11:45:19.701Z,72.80
2022-10-06T11:48:00.669Z,73.10
2022-10-06T11:50:49.219Z,73.10
2022-10-06T11:53:42.771Z,73.40
2022-10-06T11:56:18.882Z,73.90
2022-10-06T11:58:51.934Z,73.20
2022-10-06T12:01:31.122Z,72.90
2022-10-06T12:04:24.118Z,71.90
2022-10-06T12:06:53.824Z,71.90
2022-10-06T12:09:32.620Z,71.80
2022-10-06T12:12:07.062Z,72.00
2022-10-06T12:16:55.274Z,72.00
2022-10-06T12:18:01.513Z,71.80
2022-10-06T12:20:37.801Z,71.20
2022-10-06T12:23:34.555Z,69.70
2022-10-06T12:26:59.906Z,69.00
2022-10-06T12:29:37.043Z,69.00
2022-10-06T12:32:34.068Z,69.70
2022-10-06T12:35:03.446Z,69.50
2022-10-06T12:37:36.424Z,69.50
2022-10-06T12:40:41.848Z,69.70
2022-10-06T12:43:14.961Z,70.00
2022-10-06T12:45:55.590Z,70.00
2022-10-06T12:48:28.505Z,69.70
2022-10-06T12:51:03.011Z,69.40
2022-10-06T12:53:34.966Z,69.60
2022-10-06T12:56:05.285Z,69.20
2022-10-06T12:58:34.102Z,69.40
2022-10-06T13:01:12.919Z,68.80
2022-10-06T13:03:40.149Z,69.20
2022-10-06T13:06:09.424Z,68.40
2022-10-06T13:08:38.536Z,68.90
2022-10-06T13:11:30.234Z,68.80
2022-10-06T13:14:06.895Z,69.20
2022-10-06T13:16:39.627Z,69.60
2022-10-06T13:19:23.253Z,69.80
2022-10-06T13:21:50.380Z,69.80
2022-10-06T13:24:25.812Z,69.80
2022-10-06T13:26:53.617Z,69.80
2022-10-06T13:29:25.726Z,69.90
2022-10-06T13:31:56.832Z,69.40
2022-10-06T13:34:43.098Z,68.80
2022-10-06T13:37:15.054Z,68.50
2022-10-06T13:39:42.018Z,68.00
2022-10-06T13:42:17.903Z,68.00
2022-10-06T13:44:54.221Z,68.10
2022-10-06T13:47:24.638Z,67.70
2022-10-06T13:50:02.252Z,67.80
2022-10-06T13:52:40.880Z,67.50
2022-10-06T13:55:22.736Z,67.00
2022-10-06T13:58:00.044Z,66.80
2022-10-06T14:00:31.035Z,67.10
2022-10-06T14:03:07.646Z,66.80
2022-10-06T14:05:38.971Z,66.80
2022-10-06T14:10:58.002Z,65.20
2022-10-06T14:13:53.740Z,65.50
2022-10-06T14:16:24.105Z,65.70
2022-10-06T14:19:02.473Z,65.90
2022-10-06T14:21:36.889Z,65.60
2022-10-06T14:24:07.837Z,64.70
2022-10-06T14:26:37.546Z,64.90
2022-10-06T14:29:04.799Z,64.50
2022-10-06T14:31:37.449Z,64.40
2022-10-06T14:34:04.848Z,64.20
2022-10-06T14:36:37.291Z,63.30
2022-10-06T14:39:05.348Z,63.60
2022-10-06T14:41:32.902Z,63.40
2022-10-06T14:44:02.506Z,63.60
2022-10-06T14:46:30.296Z,63.80
2022-10-06T14:48:58.095Z,64.40
2022-10-06T14:51:27.153Z,64.70
2022-10-06T14:53:57.295Z,64.60
2022-10-06T14:56:26.952Z,64.80
2022-10-06T14:58:53.862Z,65.00
2022-10-06T15:01:25.128Z,64.80
2022-10-06T15:03:56.829Z,65.10
2022-10-06T15:06:42.878Z,65.10
2022-10-06T15:09:10.376Z,65.30
2022-10-06T15:11:38.459Z,65.80
2022-10-06T15:14:06.292Z,65.10
2022-10-06T15:16:34.289Z,65.30
2022-10-06T15:19:04.578Z,65.10
2022-10-06T15:21:35.431Z,64.70
2022-10-06T15:24:04.219Z,65.10
2022-10-06T15:26:50.335Z,64.70
2022-10-06T15:29:58.629Z,65.00
2022-10-06T15:32:25.622Z,65.00
2022-10-06T15:34:52.833Z,65.40
2022-10-06T15:37:19.951Z,65.50
2022-10-06T15:39:46.996Z,65.90
2022-10-06T15:42:18.817Z,66.00
2022-10-06T15:44:45.885Z,66.20
2022-10-06T15:47:15.956Z,66.40
2022-10-06T15:49:43.099Z,66.60
2022-10-06T15:52:12.273Z,66.70
2022-10-06T15:54:40.808Z,66.80
2022-10-06T15:57:11.584Z,67.00
2022-10-06T15:59:41.185Z,67.10
2022-10-06T16:02:14.991Z,67.40
2022-10-06T16:04:44.288Z,67.70
2022-10-06T16:07:14.371Z,67.90
2022-10-06T16:09:54.324Z,68.10
2022-10-06T16:12:25.367Z,68.30
2022-10-06T16:14:52.425Z,68.30
2022-10-06T16:17:58.129Z,68.60
2022-10-06T16:20:25.268Z,68.80
2022-10-06T16:22:52.311Z,69.20
2022-10-06T16:25:19.310Z,69.50
2022-10-06T16:27:46.315Z,69.60
2022-10-06T16:30:13.461Z,69.70
2022-10-06T16:32:41.010Z,69.90
2022-10-06T16:35:08.823Z,70.00
2022-10-06T16:37:35.841Z,70.30
2022-10-06T16:40:02.963Z,70.50
2022-10-06T16:42:30.022Z,70.80
2022-10-06T16:44:57.186Z,70.90
2022-10-06T16:47:24.248Z,71.10
2022-10-06T16:49:54.715Z,71.30
2022-10-06T16:52:25.686Z,72.10
2022-10-06T16:54:52.825Z,72.20
2022-10-06T16:57:19.866Z,71.90
2022-10-06T16:59:47.188Z,72.20
2022-10-06T17:02:14.281Z,72.50
2022-10-06T17:04:41.292Z,72.90
2022-10-06T17:07:08.466Z,73.30
2022-10-06T17:09:35.912Z,73.60
2022-10-06T17:12:04.418Z,74.00
2022-10-06T17:14:36.960Z,74.40
2022-10-06T17:17:04.825Z,74.70
2022-10-06T17:19:31.911Z,75.00
2022-10-06T17:21:59.939Z,75.30
2022-10-06T17:24:29.737Z,75.50
2022-10-06T17:31:11.458Z,76.10
2022-10-06T17:33:40.611Z,76.50
2022-10-06T17:36:12.642Z,76.80
2022-10-06T17:38:42.500Z,77.10
2022-10-06T17:41:18.609Z,77.40
2022-10-06T17:43:50.345Z,77.70
2022-10-06T17:46:22.982Z,78.00
2022-10-06T17:48:51.757Z,78.20
2022-10-06T17:51:29.137Z,78.40
2022-10-06T17:53:58.071Z,78.70
2022-10-06T17:56:27.063Z,78.90
2022-10-06T17:58:58.963Z,79.20
2022-10-06T18:01:34.859Z,79.40
2022-10-06T18:04:04.855Z,79.60
2022-10-06T18:06:36.327Z,79.80
2022-10-06T18:09:05.709Z,80.00
2022-10-06T18:15:11.376Z,80.30
2022-10-06T18:17:29.843Z,80.50
2022-10-06T18:19:57.775Z,80.70
2022-10-06T18:22:25.241Z,80.90
2022-10-06T18:24:56.082Z,81.00
2022-10-06T18:27:27.248Z,81.20
2022-10-06T18:29:54.187Z,81.30
2022-10-06T18:33:47.566Z,81.40
2022-10-06T18:37:56.652Z,81.70
2022-10-06T18:40:24.124Z,81.90
2022-10-06T18:42:54.147Z,82.10
2022-10-06T18:45:39.776Z,82.30
2022-10-06T18:48:26.777Z,82.40
2022-10-06T18:51:03.759Z,82.50
2022-10-06T18:53:41.583Z,82.70
2022-10-06T18:56:08.832Z,82.80
2022-10-06T18:58:41.671Z,83.10
2022-10-06T19:01:09.132Z,83.20
2022-10-06T19:03:36.942Z,83.30
2022-10-06T19:06:04.424Z,83.40
2022-10-06T19:08:34.325Z,83.60
2022-10-06T19:11:26.689Z,83.70
2022-10-06T19:13:54.911Z,83.80
2022-10-06T19:16:24.682Z,83.90
2022-10-06T19:18:52.169Z,84.00
2022-10-06T19:21:19.140Z,84.20
2022-10-06T19:23:46.942Z,84.20
2022-10-06T19:26:13.946Z,84.40
2022-10-06T19:28:41.024Z,84.50
2022-10-06T19:31:12.829Z,84.60
2022-10-06T19:33:39.950Z,84.70
2022-10-06T19:36:11.803Z,84.70
2022-10-06T19:38:40.444Z,84.90
2022-10-06T19:44:19.958Z,85.10
2022-10-06T19:46:47.182Z,85.10
2022-10-06T19:49:15.186Z,85.30
2022-10-06T19:51:42.306Z,85.30
2022-10-06T19:54:11.638Z,85.40
2022-10-06T19:56:41.344Z,85.50
2022-10-06T19:59:18.174Z,85.60
2022-10-06T20:01:48.665Z,85.70
2022-10-06T20:04:16.424Z,85.80
2022-10-06T20:06:44.208Z,85.90
2022-10-06T20:09:14.117Z,86.00
2022-10-06T20:11:52.450Z,86.00
2022-10-06T20:14:26.491Z,86.10
2022-10-06T20:17:26.408Z,86.20
2022-10-06T20:19:57.869Z,86.30
2022-10-06T20:22:25.553Z,86.40
2022-10-06T20:24:53.636Z,86.50
2022-10-06T20:27:25.517Z,87.20
2022-10-06T20:29:57.078Z,86.60
2022-10-06T20:32:24.079Z,86.70
2022-10-06T20:34:51.043Z,86.70
2022-10-06T20:37:17.987Z,87.40
2022-10-06T20:40:03.264Z,86.90
2022-10-06T20:42:31.450Z,87.00
2022-10-06T20:44:58.479Z,87.10
2022-10-06T20:47:25.422Z,87.10
2022-10-06T20:49:55.183Z,87.20
2022-10-06T20:52:23.977Z,87.30
2022-10-06T20:54:51.292Z,87.30
2022-10-06T20:57:18.265Z,87.30
2022-10-06T20:59:46.219Z,87.40
2022-10-06T21:02:16.731Z,87.50
2022-10-06T21:04:44.008Z,87.60
2022-10-06T21:07:11.450Z,87.60
2022-10-06T21:09:40.360Z,87.70
2022-10-06T21:12:07.359Z,87.70
2022-10-06T21:14:36.204Z,87.80
2022-10-06T21:17:03.083Z,87.90
2022-10-06T21:19:30.056Z,87.90
2022-10-06T21:21:57.153Z,87.90
2022-10-06T21:24:24.124Z,88.60
2022-10-06T21:26:52.788Z,88.00
2022-10-06T21:29:20.534Z,88.10
2022-10-06T21:31:47.928Z,88.20
2022-10-06T21:34:14.957Z,88.30
2022-10-06T21:36:43.486Z,88.30
2022-10-06T21:39:11.321Z,88.40
2022-10-06T21:41:39.672Z,88.50
2022-10-06T21:44:17.956Z,88.50
2022-10-06T21:46:52.575Z,88.50
2022-10-06T21:49:21.819Z,88.50
2022-10-06T21:51:53.865Z,88.60
2022-10-06T21:54:25.146Z,88.60
2022-10-06T21:56:52.416Z,88.70
2022-10-06T21:59:19.488Z,88.70
2022-10-06T22:01:49.820Z,88.80
2022-10-06T22:04:19.394Z,88.80
2022-10-06T22:06:50.218Z,88.80
2022-10-06T22:09:19.407Z,88.90
2022-10-06T22:11:46.504Z,88.90
2022-10-06T22:14:15.595Z,89.00
2022-10-06T22:16:43.132Z,89.10
2022-10-06T22:19:12.307Z,89.10
2022-10-06T22:21:41.820Z,89.20
2022-10-06T22:24:11.758Z,89.20
2022-10-06T22:26:40.605Z,89.40
2022-10-06T22:29:09.959Z,89.40
2022-10-06T22:31:39.534Z,89.50
2022-10-06T22:34:07.890Z,89.40
2022-10-06T22:36:35.070Z,89.50
2022-10-06T22:39:02.464Z,89.60
2022-10-06T22:41:29.577Z,89.60
2022-10-06T22:43:57.962Z,89.60
2022-10-06T22:46:26.763Z,89.60
2022-10-06T22:48:54.374Z,89.60
2022-10-06T22:51:21.673Z,89.60
2022-10-06T22:53:57.572Z,89.70
2022-10-06T22:56:37.626Z,89.70
2022-10-06T22:59:04.795Z,89.90
2022-10-06T23:01:31.882Z,89.90
2022-10-06T23:03:59.049Z,89.90
2022-10-06T23:06:26.772Z,90.00
2022-10-06T23:08:53.736Z,90.00
2022-10-06T23:11:24.875Z,90.00
2022-10-06T23:13:53.079Z,90.00
2022-10-06T23:16:20.830Z,90.00
2022-10-06T23:18:48.588Z,90.10
2022-10-06T23:21:24.370Z,90.10
2022-10-06T23:23:53.316Z,90.10
2022-10-06T23:26:24.068Z,90.10
2022-10-06T23:28:59.586Z,90.10
2022-10-06T23:31:28.219Z,90.10
2022-10-06T23:33:57.788Z,90.10
2022-10-06T23:36:24.947Z,90.10
2022-10-06T23:38:52.104Z,90.20
2022-10-06T23:41:19.805Z,90.20
2022-10-06T23:43:47.044Z,90.20
2022-10-06T23:46:14.271Z,90.20
2022-10-06T23:48:41.720Z,90.20
2022-10-06T23:51:11.949Z,90.30
2022-10-06T23:53:39.467Z,90.30
2022-10-06T23:56:07.179Z,90.30
2022-10-06T23:58:34.399Z,90.30
